Time;durP1;ratioP1;P1;durP2;ratioP2;P2;SDS_P1;SDS_P2;PMS_P1;PMS_P2;Temp;Humidity;BMP_temperature;BMP_pressure;BME280_temperature;BME280_humidity;BME280_pressure;Samples;Min_cycle;Max_cycle;Signal;HPM_P1;HPM_P2
2023/01/11 00:01:17;;;;;;;;;;;7.70;99.90;;;;;;5024136;28;19936;-75
2023/01/11 00:03:43;;;;;;;;;;;7.70;99.90;;;;;;5041236;28;19931;-75
2023/01/11 00:06:09;;;;;;;;;;;7.70;99.90;;;;;;5008714;28;19921;-75
2023/01/11 00:08:34;;;;;;;;;;;7.70;99.90;;;;;;5025751;28;20007;-75
2023/01/11 00:11:01;;;;;;;;;;;7.80;99.90;;;;;;5007340;28;20402;-74
2023/01/11 00:13:27;;;;;;;;;;;7.80;99.90;;;;;;5024960;28;20399;-74
2023/01/11 00:15:52;;;;;;;;;;;7.90;99.90;;;;;;5022728;28;19921;-74
2023/01/11 00:18:18;;;;;;;;;;;7.90;99.90;;;;;;4992611;28;19947;-75
2023/01/11 00:20:44;;;;;;;;;;;7.90;99.90;;;;;;5017988;28;20383;-74
2023/01/11 00:23:09;;;;;;;;;;;7.90;99.90;;;;;;5033941;28;20450;-75
2023/01/11 00:25:35;;;;;;;;;;;7.90;99.90;;;;;;5006632;28;20503;-75
2023/01/11 00:28:01;;;;;;;;;;;7.90;99.90;;;;;;5017042;28;19925;-75
2023/01/11 00:30:27;;;;;;;;;;;8.00;99.90;;;;;;5006138;28;19921;-74
2023/01/11 00:32:56;;;;;;;;;;;8.00;99.90;;;;;;5035525;28;20283;-75
2023/01/11 00:35:22;;;;;;;;;;;8.00;99.90;;;;;;5034589;28;20015;-74
2023/01/11 00:37:48;;;;;;;;;;;8.10;99.90;;;;;;5006181;28;20402;-74
2023/01/11 00:40:13;;;;;;;;;;;8.20;99.90;;;;;;5038496;28;19921;-75
2023/01/11 00:48:09;;;;;;;;;;;8.10;99.90;;;;;;5024176;28;20454;-75
2023/01/11 00:50:36;;;;;;;;;;;8.20;99.90;;;;;;5004647;28;19928;-75
2023/01/11 00:53:02;;;;;;;;;;;8.20;99.90;;;;;;5006263;28;19976;-75
2023/01/11 00:55:27;;;;;;;;;;;8.30;99.90;;;;;;5022807;28;19921;-75
2023/01/11 00:57:53;;;;;;;;;;;8.30;99.90;;;;;;5036414;28;19929;-75
2023/01/11 01:00:20;;;;;;;;;;;8.30;99.90;;;;;;5005777;28;19925;-75
2023/01/11 01:02:46;;;;;;;;;;;8.30;99.90;;;;;;5033420;28;20271;-75
2023/01/11 01:05:12;;;;;;;;;;;8.30;99.90;;;;;;5021976;28;19941;-75
2023/01/11 01:07:37;;;;;;;;;;;8.40;99.90;;;;;;5032841;28;19921;-75
2023/01/11 01:10:03;;;;;;;;;;;8.30;99.90;;;;;;5018806;28;19944;-75
2023/01/11 01:15:13;;;;;;;;;;;8.40;99.90;;;;;;5020180;28;19921;-75
2023/01/11 01:17:39;;;;;;;;;;;8.40;99.90;;;;;;5033595;28;21907;-75
2023/01/11 01:20:05;;;;;;;;;;;8.40;99.90;;;;;;4990121;28;20015;-75
2023/01/11 01:22:30;;;;;;;;;;;8.50;99.90;;;;;;4991837;28;19964;-75
2023/01/11 01:24:56;;;;;;;;;;;8.50;99.90;;;;;;5032603;28;20373;-75
2023/01/11 01:27:21;;;;;;;;;;;8.50;99.90;;;;;;5008091;28;19921;-76
2023/01/11 01:29:47;;;;;;;;;;;8.50;99.90;;;;;;5034559;28;20375;-75
2023/01/11 01:32:13;;;;;;;;;;;8.50;99.90;;;;;;5021479;28;20378;-75
2023/01/11 01:34:38;;;;;;;;;;;8.60;99.90;;;;;;5023003;28;19925;-75
2023/01/11 01:37:04;;;;;;;;;;;8.60;99.90;;;;;;5006912;28;19921;-75
2023/01/11 01:39:30;;;;;;;;;;;8.60;99.90;;;;;;5021429;28;19925;-74
2023/01/11 01:41:56;;;;;;;;;;;8.70;99.90;;;;;;5037991;28;20303;-75
2023/01/11 01:44:40;;;;;;;;;;;8.70;99.90;;;;;;5006413;28;20516;-75
2023/01/11 01:47:06;;;;;;;;;;;8.70;99.90;;;;;;5023035;28;20078;-75
2023/01/11 01:49:31;;;;;;;;;;;8.70;99.90;;;;;;5006310;28;20028;-75
2023/01/11 01:51:57;;;;;;;;;;;8.70;99.90;;;;;;5004808;28;19975;-75
2023/01/11 01:54:26;;;;;;;;;;;8.70;99.90;;;;;;5027042;28;19921;-75
2023/01/11 01:56:58;;;;;;;;;;;8.70;99.90;;;;;;5036962;28;19929;-75
2023/01/11 01:59:25;;;;;;;;;;;8.70;99.90;;;;;;5027666;28;19921;-75
2023/01/11 02:01:51;;;;;;;;;;;8.70;99.90;;;;;;5041335;28;19925;-75
2023/01/11 02:04:28;;;;;;;;;;;8.80;99.90;;;;;;5012261;28;20533;-75
2023/01/11 02:06:57;;;;;;;;;;;8.80;99.90;;;;;;5008598;28;20477;-76
2023/01/11 02:09:56;;;;;;;;;;;8.80;99.90;;;;;;5025051;28;20995;-76
2023/01/11 02:12:23;;;;;;;;;;;8.80;99.90;;;;;;5000104;28;19921;-75
2023/01/11 02:14:49;;;;;;;;;;;8.80;99.90;;;;;;5025690;28;20008;-75
2023/01/11 02:17:15;;;;;;;;;;;8.80;99.90;;;;;;5036414;28;19941;-76
2023/01/11 02:20:10;;;;;;;;;;;8.80;99.90;;;;;;5009545;28;19921;-76
2023/01/11 02:22:38;;;;;;;;;;;8.80;99.90;;;;;;5002996;28;20063;-76
2023/01/11 02:25:04;;;;;;;;;;;8.90;99.90;;;;;;5034742;28;20689;-76
2023/01/11 02:27:48;;;;;;;;;;;8.90;99.90;;;;;;5032977;28;19968;-77
2023/01/11 02:30:25;;;;;;;;;;;8.90;99.90;;;;;;5010768;28;19929;-77
2023/01/11 02:33:00;;;;;;;;;;;8.90;99.90;;;;;;5025866;28;20366;-77
2023/01/11 02:35:32;;;;;;;;;;;8.90;99.90;;;;;;5026945;28;20016;-77
2023/01/11 02:38:12;;;;;;;;;;;9.00;99.90;;;;;;5034599;28;20375;-77
2023/01/11 02:40:38;;;;;;;;;;;9.00;99.90;;;;;;5025608;28;19975;-77
2023/01/11 02:45:58;;;;;;;;;;;9.00;99.90;;;;;;5025884;28;19932;-77
2023/01/11 02:48:26;;;;;;;;;;;9.50;99.90;;;;;;5018198;28;19921;-78
2023/01/11 02:51:06;;;;;;;;;;;9.10;99.90;;;;;;5008313;28;19921;-78
2023/01/11 02:53:42;;;;;;;;;;;9.10;99.90;;;;;;5020964;28;20007;-77
2023/01/11 02:56:14;;;;;;;;;;;9.10;99.90;;;;;;5021297;28;19921;-76
2023/01/11 02:58:42;;;;;;;;;;;9.20;99.90;;;;;;5009709;28;19983;-77
2023/01/11 03:01:12;;;;;;;;;;;9.20;99.90;;;;;;5008687;28;19952;-76
2023/01/11 03:03:37;;;;;;;;;;;9.20;99.90;;;;;;5023602;28;19925;-77
2023/01/11 03:06:10;;;;;;;;;;;9.30;99.90;;;;;;5007710;28;20301;-78
2023/01/11 03:08:48;;;;;;;;;;;9.30;99.90;;;;;;5041292;28;19928;-78
2023/01/11 03:14:16;;;;;;;;;;;9.30;99.90;;;;;;4995885;28;20473;-78
2023/01/11 03:16:57;;;;;;;;;;;9.30;99.90;;;;;;5035895;28;19928;-78
2023/01/11 03:19:45;;;;;;;;;;;9.40;99.90;;;;;;5026036;28;19921;-77
2023/01/11 03:22:14;;;;;;;;;;;9.30;99.90;;;;;;5022909;28;20011;-77
2023/01/11 03:24:54;;;;;;;;;;;9.30;99.90;;;;;;5034732;28;19975;-77
2023/01/11 03:27:25;;;;;;;;;;;9.30;99.90;;;;;;5024074;28;19932;-77
2023/01/11 03:29:57;;;;;;;;;;;9.30;99.90;;;;;;5041410;28;19921;-77
2023/01/11 03:32:29;;;;;;;;;;;9.40;99.90;;;;;;5022931;28;19928;-77
2023/01/11 03:35:18;;;;;;;;;;;9.40;99.90;;;;;;5025202;28;19925;-77
2023/01/11 03:38:02;;;;;;;;;;;9.40;99.90;;;;;;5006342;28;19928;-77
2023/01/11 03:40:36;;;;;;;;;;;9.50;99.90;;;;;;5038335;28;19921;-77
2023/01/11 03:43:11;;;;;;;;;;;9.50;99.90;;;;;;5038988;28;19921;-76
2023/01/11 03:45:51;;;;;;;;;;;9.50;99.90;;;;;;5009497;28;19925;-76
2023/01/11 03:48:20;;;;;;;;;;;9.50;99.90;;;;;;5007555;28;19921;-76
2023/01/11 03:50:48;;;;;;;;;;;9.50;99.90;;;;;;5020785;28;19929;-77
2023/01/11 03:53:16;;;;;;;;;;;9.50;99.90;;;;;;5017638;28;19921;-77
2023/01/11 03:55:43;;;;;;;;;;;9.50;99.90;;;;;;5025999;28;19921;-77
2023/01/11 03:58:09;;;;;;;;;;;9.50;99.90;;;;;;5007445;28;20020;-77
2023/01/11 04:00:35;;;;;;;;;;;9.50;99.90;;;;;;5007216;28;20031;-77
2023/01/11 04:03:03;;;;;;;;;;;9.50;99.90;;;;;;5037029;28;19944;-78
2023/01/11 04:05:29;;;;;;;;;;;9.60;99.90;;;;;;5023614;28;19936;-77
2023/01/11 04:07:55;;;;;;;;;;;9.60;99.90;;;;;;5008683;28;19921;-77
2023/01/11 04:10:20;;;;;;;;;;;9.60;99.90;;;;;;4990921;28;19932;-76
2023/01/11 04:12:47;;;;;;;;;;;9.60;99.90;;;;;;5007336;28;20390;-76
2023/01/11 04:15:13;;;;;;;;;;;9.60;99.90;;;;;;5022774;28;19928;-76
2023/01/11 04:17:42;;;;;;;;;;;9.60;99.90;;;;;;5038902;28;19925;-76
2023/01/11 04:20:08;;;;;;;;;;;9.70;99.90;;;;;;5025180;28;20010;-76
2023/01/11 04:22:34;;;;;;;;;;;9.70;99.90;;;;;;5055449;28;19929;-77
2023/01/11 04:24:59;;;;;;;;;;;9.70;99.90;;;;;;5035521;28;19951;-77
2023/01/11 04:27:25;;;;;;;;;;;9.70;99.90;;;;;;5035427;28;19937;-76
2023/01/11 04:29:50;;;;;;;;;;;9.70;99.90;;;;;;5022115;28;19987;-77
2023/01/11 04:32:16;;;;;;;;;;;9.80;99.90;;;;;;5024434;28;19925;-77
2023/01/11 04:34:42;;;;;;;;;;;9.70;99.90;;;;;;5024769;28;19944;-77
2023/01/11 04:37:08;;;;;;;;;;;9.80;99.90;;;;;;5008880;28;19921;-77
2023/01/11 04:39:33;;;;;;;;;;;9.80;99.90;;;;;;5035245;28;19960;-77
2023/01/11 04:42:17;;;;;;;;;;;9.80;99.90;;;;;;5007344;28;19921;-77
2023/01/11 04:44:47;;;;;;;;;;;9.80;99.90;;;;;;5035406;28;19925;-77
2023/01/11 04:47:14;;;;;;;;;;;9.90;99.90;;;;;;5033928;28;19935;-77
2023/01/11 04:49:40;;;;;;;;;;;9.80;99.90;;;;;;5006008;28;19932;-77
2023/01/11 04:52:06;;;;;;;;;;;9.80;99.90;;;;;;5006914;28;20018;-77
2023/01/11 04:54:31;;;;;;;;;;;9.80;99.90;;;;;;4990929;28;20465;-77
2023/01/11 04:56:57;;;;;;;;;;;9.90;99.90;;;;;;5024374;28;19929;-77
2023/01/11 04:59:22;;;;;;;;;;;9.90;99.90;;;;;;5005621;28;19943;-77
2023/01/11 05:01:48;;;;;;;;;;;9.90;99.90;;;;;;5007751;28;20404;-77
2023/01/11 05:04:14;;;;;;;;;;;9.90;99.90;;;;;;5035385;28;19933;-76
2023/01/11 05:06:39;;;;;;;;;;;9.90;99.90;;;;;;5034513;28;20067;-76
2023/01/11 05:09:06;;;;;;;;;;;9.90;99.90;;;;;;5005605;28;19932;-76
2023/01/11 05:11:32;;;;;;;;;;;10.00;99.90;;;;;;5039381;28;19999;-76
2023/01/11 05:13:58;;;;;;;;;;;10.00;99.90;;;;;;5005280;28;19928;-76
2023/01/11 05:16:24;;;;;;;;;;;10.00;99.90;;;;;;5007963;28;19925;-76
2023/01/11 05:18:57;;;;;;;;;;;10.00;99.90;;;;;;5023705;28;19932;-76
2023/01/11 05:21:33;;;;;;;;;;;10.00;99.90;;;;;;5023626;28;20374;-76
2023/01/11 05:24:00;;;;;;;;;;;10.00;99.90;;;;;;5007281;28;19925;-76
2023/01/11 05:26:26;;;;;;;;;;;10.00;99.90;;;;;;5034359;28;19929;-76
2023/01/11 05:28:53;;;;;;;;;;;10.00;99.90;;;;;;5025053;28;19928;-76
2023/01/11 05:31:19;;;;;;;;;;;10.00;99.90;;;;;;5011886;28;19921;-76
2023/01/11 05:33:44;;;;;;;;;;;10.00;99.90;;;;;;5010070;28;20272;-76
2023/01/11 05:36:12;;;;;;;;;;;10.00;99.90;;;;;;5012832;28;19925;-76
2023/01/11 05:38:37;;;;;;;;;;;10.00;99.90;;;;;;5011321;28;19925;-76
2023/01/11 05:41:05;;;;;;;;;;;10.00;99.90;;;;;;5025894;28;19929;-76
2023/01/11 05:43:30;;;;;;;;;;;10.00;99.90;;;;;;5011588;28;20029;-76
2023/01/11 05:45:56;;;;;;;;;;;10.00;99.90;;;;;;5026717;28;20441;-76
2023/01/11 05:48:22;;;;;;;;;;;10.10;99.90;;;;;;5027762;28;20378;-76
2023/01/11 05:50:52;;;;;;;;;;;10.00;99.90;;;;;;5035614;28;19921;-76
2023/01/11 05:53:18;;;;;;;;;;;10.10;99.90;;;;;;5009686;28;20016;-76
2023/01/11 05:55:53;;;;;;;;;;;10.10;99.90;;;;;;5007906;28;20055;-76
2023/01/11 05:58:19;;;;;;;;;;;10.10;99.90;;;;;;5008831;28;19924;-76
2023/01/11 06:00:48;;;;;;;;;;;10.10;99.90;;;;;;5041197;28;19933;-76
2023/01/11 06:03:14;;;;;;;;;;;10.00;99.90;;;;;;5026206;28;20012;-76
2023/01/11 06:05:40;;;;;;;;;;;10.00;99.90;;;;;;5009965;28;20008;-76
2023/01/11 06:08:05;;;;;;;;;;;10.00;99.90;;;;;;5025113;28;19924;-76
2023/01/11 06:10:31;;;;;;;;;;;10.00;99.90;;;;;;5037752;28;20006;-76
2023/01/11 06:15:41;;;;;;;;;;;9.90;99.90;;;;;;5022973;28;20389;-76
2023/01/11 06:18:07;;;;;;;;;;;9.90;99.90;;;;;;5020468;28;19968;-74
2023/01/11 06:20:33;;;;;;;;;;;9.90;99.90;;;;;;5011758;28;19925;-75
2023/01/11 06:22:58;;;;;;;;;;;10.00;99.90;;;;;;5011364;28;19925;-76
2023/01/11 06:25:24;;;;;;;;;;;9.90;99.90;;;;;;5010503;28;20610;-75
2023/01/11 06:27:51;;;;;;;;;;;9.90;99.90;;;;;;5025086;28;19925;-75
2023/01/11 06:30:17;;;;;;;;;;;9.90;99.90;;;;;;5011526;28;20442;-75
2023/01/11 06:32:42;;;;;;;;;;;9.90;99.90;;;;;;5010183;28;19960;-75
2023/01/11 06:35:08;;;;;;;;;;;9.90;99.90;;;;;;5040580;28;20015;-75
2023/01/11 06:37:34;;;;;;;;;;;9.90;99.90;;;;;;5026201;28;20977;-75
2023/01/11 06:39:59;;;;;;;;;;;9.80;99.90;;;;;;5026780;28;20259;-75
2023/01/11 06:42:25;;;;;;;;;;;9.80;99.90;;;;;;5038538;28;19929;-75
2023/01/11 06:44:50;;;;;;;;;;;9.80;99.90;;;;;;5025154;28;19944;-76
2023/01/11 06:47:16;;;;;;;;;;;9.80;99.90;;;;;;4992189;28;19931;-75
2023/01/11 06:49:41;;;;;;;;;;;9.70;99.90;;;;;;5040232;28;19925;-75
2023/01/11 06:52:07;;;;;;;;;;;9.80;99.90;;;;;;5009384;28;19927;-75
2023/01/11 06:54:33;;;;;;;;;;;9.80;99.90;;;;;;5024711;28;19925;-76
2023/01/11 06:56:58;;;;;;;;;;;9.70;99.90;;;;;;5037183;28;19928;-75
2023/01/11 06:59:24;;;;;;;;;;;9.70;99.90;;;;;;5025015;28;20378;-75
2023/01/11 07:01:50;;;;;;;;;;;9.60;99.90;;;;;;5026892;28;19929;-75
2023/01/11 07:04:17;;;;;;;;;;;9.60;99.90;;;;;;5042267;28;19929;-75
2023/01/11 07:06:43;;;;;;;;;;;9.60;99.90;;;;;;5025624;28;20353;-75
2023/01/11 07:09:08;;;;;;;;;;;9.60;99.90;;;;;;5026640;28;19932;-75
2023/01/11 07:11:37;;;;;;;;;;;9.60;99.90;;;;;;5010195;28;20453;-75
2023/01/11 07:14:04;;;;;;;;;;;9.60;99.90;;;;;;5035175;28;19925;-75
2023/01/11 07:16:29;;;;;;;;;;;9.50;99.90;;;;;;5034623;28;19979;-75
2023/01/11 07:18:55;;;;;;;;;;;9.50;99.90;;;;;;5006795;28;19933;-75
2023/01/11 07:21:20;;;;;;;;;;;9.50;99.90;;;;;;5010212;28;20008;-75
2023/01/11 07:23:47;;;;;;;;;;;9.50;99.90;;;;;;4994052;28;20450;-75
2023/01/11 07:26:15;;;;;;;;;;;9.50;99.90;;;;;;5009835;28;19921;-75
2023/01/11 07:28:42;;;;;;;;;;;9.40;99.90;;;;;;5009433;28;19933;-75
2023/01/11 07:31:13;;;;;;;;;;;9.50;99.90;;;;;;5039506;28;20406;-75
2023/01/11 07:33:38;;;;;;;;;;;9.50;99.90;;;;;;5022001;28;19929;-75
2023/01/11 07:36:05;;;;;;;;;;;9.40;99.90;;;;;;5006130;28;19921;-75
2023/01/11 07:38:36;;;;;;;;;;;9.40;99.90;;;;;;5024479;28;19968;-75
2023/01/11 07:43:10;;;;;;;;;;;9.40;99.90;;;;;;5033879;28;20004;-75
2023/01/11 07:43:48;;;;;;;;;;;9.40;99.90;;;;;;5020195;28;19929;-75
2023/01/11 07:46:14;;;;;;;;;;;9.40;99.90;;;;;;5012353;28;19933;-75
2023/01/11 07:48:48;;;;;;;;;;;9.40;99.90;;;;;;5029838;28;20839;-75
2023/01/11 07:51:19;;;;;;;;;;;9.40;99.90;;;;;;5028913;28;19975;-75
2023/01/11 07:53:45;;;;;;;;;;;9.40;99.90;;;;;;5029513;28;19967;-75
2023/01/11 07:56:17;;;;;;;;;;;9.40;99.90;;;;;;5029637;28;19925;-75
2023/01/11 07:58:42;;;;;;;;;;;9.40;99.90;;;;;;5039292;28;19980;-75
2023/01/11 08:01:30;;;;;;;;;;;9.40;99.90;;;;;;5028713;28;19939;-75
2023/01/11 08:04:01;;;;;;;;;;;9.40;99.90;;;;;;5029155;28;19929;-75
2023/01/11 08:06:30;;;;;;;;;;;9.40;99.90;;;;;;5028833;28;20013;-75
2023/01/11 08:08:55;;;;;;;;;;;9.40;99.90;;;;;;5006839;28;19965;-75
2023/01/11 08:16:53;;;;;;;;;;;9.50;99.90;;;;;;5028165;28;19921;-74
2023/01/11 08:19:19;;;;;;;;;;;9.50;99.90;;;;;;5029334;28;19928;-75
2023/01/11 08:21:48;;;;;;;;;;;9.50;99.90;;;;;;5023376;28;19929;-75
2023/01/11 08:24:14;;;;;;;;;;;9.40;99.90;;;;;;5028925;28;19956;-75
2023/01/11 08:26:40;;;;;;;;;;;9.40;99.90;;;;;;5027913;28;20412;-75
2023/01/11 08:29:08;;;;;;;;;;;9.40;99.90;;;;;;5019525;28;20137;-75
2023/01/11 08:31:43;;;;;;;;;;;9.40;99.90;;;;;;5028784;28;20341;-74
2023/01/11 08:34:26;;;;;;;;;;;9.30;99.90;;;;;;5032717;28;20006;-75
2023/01/11 08:36:52;;;;;;;;;;;9.40;99.90;;;;;;5012718;28;19936;-74
2023/01/11 08:39:17;;;;;;;;;;;9.30;99.90;;;;;;5034159;28;19921;-74
2023/01/11 08:41:43;;;;;;;;;;;9.30;99.90;;;;;;5012085;28;20294;-74
2023/01/11 08:44:09;;;;;;;;;;;9.20;99.90;;;;;;5019015;28;20016;-75
2023/01/11 08:46:41;;;;;;;;;;;9.20;99.90;;;;;;5002511;28;19921;-75
2023/01/11 08:49:16;;;;;;;;;;;9.10;99.90;;;;;;5028783;28;19928;-74
2023/01/11 08:51:50;;;;;;;;;;;9.10;99.90;;;;;;5027229;28;19921;-74
2023/01/11 08:54:17;;;;;;;;;;;9.00;99.90;;;;;;5012758;28;20267;-74
2023/01/11 08:56:46;;;;;;;;;;;8.90;99.90;;;;;;5012227;28;19921;-74
2023/01/11 08:59:18;;;;;;;;;;;8.90;99.90;;;;;;5010169;28;20413;-75
2023/01/11 09:01:47;;;;;;;;;;;8.80;99.90;;;;;;4987688;28;19948;-75
2023/01/11 09:04:13;;;;;;;;;;;8.80;99.90;;;;;;4974823;28;19983;-75
2023/01/11 09:06:41;;;;;;;;;;;8.70;99.90;;;;;;4986480;28;19956;-75
2023/01/11 09:09:13;;;;;;;;;;;8.70;99.90;;;;;;4991375;28;19921;-74
2023/01/11 09:11:54;;;;;;;;;;;8.70;99.90;;;;;;4991347;28;19921;-75
2023/01/11 09:14:20;;;;;;;;;;;8.60;99.90;;;;;;4975987;28;19937;-75
2023/01/11 09:16:48;;;;;;;;;;;8.60;99.90;;;;;;4990917;28;19921;-74
2023/01/11 09:19:20;;;;;;;;;;;8.60;99.90;;;;;;5007307;28;19952;-74
2023/01/11 09:21:50;;;;;;;;;;;8.60;99.90;;;;;;5002707;28;19913;-74
2023/01/11 09:24:16;;;;;;;;;;;8.60;99.90;;;;;;5012437;28;20004;-74
2023/01/11 09:26:42;;;;;;;;;;;8.50;99.90;;;;;;5022137;28;19913;-74
2023/01/11 09:29:11;;;;;;;;;;;8.50;99.90;;;;;;5018677;28;19932;-74
2023/01/11 09:31:37;;;;;;;;;;;8.50;99.90;;;;;;5016197;28;19925;-75
2023/01/11 09:34:04;;;;;;;;;;;8.50;99.90;;;;;;5035744;28;19910;-74
2023/01/11 09:36:31;;;;;;;;;;;8.50;99.90;;;;;;5042215;28;19932;-74
2023/01/11 09:39:01;;;;;;;;;;;8.50;99.90;;;;;;5023211;28;19921;-75
2023/01/11 09:41:49;;;;;;;;;;;8.50;99.90;;;;;;5014141;28;19932;-74
2023/01/11 09:44:22;;;;;;;;;;;8.50;99.90;;;;;;5012062;28;20016;-74
2023/01/11 09:47:02;;;;;;;;;;;8.50;99.90;;;;;;5011826;28;19925;-74
2023/01/11 09:49:29;;;;;;;;;;;8.50;99.90;;;;;;5000854;28;19921;-74
2023/01/11 09:52:06;;;;;;;;;;;8.50;99.90;;;;;;5020252;28;19921;-74
2023/01/11 09:54:35;;;;;;;;;;;8.50;99.90;;;;;;5011096;28;20018;-74
2023/01/11 09:57:25;;;;;;;;;;;8.50;99.90;;;;;;5011193;28;19940;-74
2023/01/11 10:00:18;;;;;;;;;;;8.50;99.90;;;;;;5009876;28;20441;-74
2023/01/11 10:03:05;;;;;;;;;;;8.50;99.90;;;;;;5025850;28;19925;-74
2023/01/11 10:06:05;;;;;;;;;;;8.50;99.90;;;;;;5019288;28;20909;-74
2023/01/11 10:08:40;;;;;;;;;;;8.50;99.90;;;;;;4987367;28;20402;-74
2023/01/11 10:11:23;;;;;;;;;;;8.50;99.90;;;;;;4996250;28;19929;-74
2023/01/11 10:13:54;;;;;;;;;;;8.40;99.90;;;;;;5028822;28;20302;-74
2023/01/11 10:16:31;;;;;;;;;;;8.40;99.90;;;;;;5031376;28;20028;-74
2023/01/11 10:19:05;;;;;;;;;;;8.40;99.90;;;;;;5020323;28;19928;-74
2023/01/11 10:21:46;;;;;;;;;;;8.40;99.90;;;;;;5030984;28;19921;-74
2023/01/11 10:24:23;;;;;;;;;;;8.40;99.90;;;;;;5007096;28;20301;-74
2023/01/11 10:27:00;;;;;;;;;;;8.40;99.90;;;;;;5015469;28;20011;-74
2023/01/11 10:29:45;;;;;;;;;;;8.40;99.90;;;;;;5014091;28;19929;-74
2023/01/11 10:32:52;;;;;;;;;;;8.50;99.90;;;;;;5030947;28;20007;-74
2023/01/11 10:35:32;;;;;;;;;;;8.50;99.90;;;;;;5019041;28;19925;-74
2023/01/11 10:38:22;;;;;;;;;;;8.60;99.90;;;;;;5030964;28;19944;-74
2023/01/11 10:41:03;;;;;;;;;;;8.70;99.90;;;;;;5030416;28;20397;-74
2023/01/11 10:43:46;;;;;;;;;;;8.60;99.90;;;;;;5025732;28;19975;-74
2023/01/11 10:46:15;;;;;;;;;;;8.60;99.90;;;;;;5034276;28;19925;-74
2023/01/11 10:48:42;;;;;;;;;;;8.80;99.90;;;;;;5031094;28;19952;-74
2023/01/11 10:51:14;;;;;;;;;;;8.80;99.90;;;;;;5035639;28;20008;-74
2023/01/11 10:53:48;;;;;;;;;;;8.80;99.90;;;;;;5014956;28;19943;-74
2023/01/11 10:56:26;;;;;;;;;;;8.80;99.90;;;;;;5031914;28;19925;-74
2023/01/11 10:59:08;;;;;;;;;;;8.80;99.90;;;;;;5044484;28;20271;-74
2023/01/11 11:01:38;;;;;;;;;;;8.70;99.90;;;;;;5028201;28;20240;-74
2023/01/11 11:04:04;;;;;;;;;;;8.70;99.90;;;;;;5028560;28;19925;-74
2023/01/11 11:06:44;;;;;;;;;;;8.70;99.90;;;;;;5033460;28;20401;-74
2023/01/11 11:09:18;;;;;;;;;;;8.70;99.90;;;;;;5030281;28;19965;-74
2023/01/11 11:11:55;;;;;;;;;;;8.70;99.90;;;;;;5029435;28;19921;-74
2023/01/11 11:14:41;;;;;;;;;;;8.70;99.90;;;;;;5030148;28;19971;-74
2023/01/11 11:17:30;;;;;;;;;;;8.70;99.90;;;;;;5025741;28;19922;-74
2023/01/11 11:20:03;;;;;;;;;;;8.80;99.90;;;;;;5018652;28;20274;-74
2023/01/11 11:22:32;;;;;;;;;;;8.80;99.90;;;;;;5029925;28;19928;-74
2023/01/11 11:25:03;;;;;;;;;;;8.80;99.90;;;;;;5026999;28;20295;-74
2023/01/11 11:27:40;;;;;;;;;;;8.80;99.90;;;;;;5029442;28;20286;-74
2023/01/11 11:30:10;;;;;;;;;;;8.80;99.90;;;;;;5030021;28;19921;-74
2023/01/11 11:32:49;;;;;;;;;;;8.80;99.90;;;;;;5006724;28;20153;-74
2023/01/11 11:35:35;;;;;;;;;;;8.80;99.90;;;;;;5005296;28;19959;-74
2023/01/11 11:38:04;;;;;;;;;;;8.80;99.90;;;;;;5029521;28;19948;-74
2023/01/11 11:40:35;;;;;;;;;;;8.70;99.90;;;;;;5029958;28;19921;-74
2023/01/11 11:43:20;;;;;;;;;;;8.70;99.90;;;;;;5028205;28;19932;-73
2023/01/11 11:45:50;;;;;;;;;;;8.80;99.90;;;;;;5018315;28;20226;-74
2023/01/11 11:48:16;;;;;;;;;;;8.70;99.90;;;;;;5013517;28;19921;-73
2023/01/11 11:50:45;;;;;;;;;;;8.70;99.90;;;;;;5013555;28;20012;-73
2023/01/11 11:53:37;;;;;;;;;;;8.80;99.90;;;;;;5030546;28;19921;-74
2023/01/11 11:56:21;;;;;;;;;;;8.80;99.90;;;;;;5021133;28;20349;-74
2023/01/11 11:58:47;;;;;;;;;;;8.80;99.90;;;;;;5029953;28;20351;-74
2023/01/11 12:01:28;;;;;;;;;;;8.80;99.90;;;;;;5029303;28;20004;-74
2023/01/11 12:03:59;;;;;;;;;;;8.80;99.90;;;;;;5032337;28;20384;-74
2023/01/11 12:06:26;;;;;;;;;;;8.90;99.90;;;;;;5028121;28;19936;-73
2023/01/11 12:08:56;;;;;;;;;;;8.90;99.90;;;;;;4997553;28;19931;-73
2023/01/11 12:11:35;;;;;;;;;;;8.90;99.90;;;;;;5026446;28;19929;-73
2023/01/11 12:14:08;;;;;;;;;;;8.90;99.90;;;;;;5029249;28;19928;-74
2023/01/11 12:16:39;;;;;;;;;;;8.90;99.90;;;;;;5014279;28;19927;-73
2023/01/11 12:19:23;;;;;;;;;;;8.90;99.90;;;;;;5012729;28;19924;-74
2023/01/11 12:21:52;;;;;;;;;;;9.10;99.90;;;;;;5006963;28;19929;-74
2023/01/11 12:24:18;;;;;;;;;;;9.20;99.90;;;;;;5013097;28;19926;-74
2023/01/11 12:27:02;;;;;;;;;;;9.30;99.90;;;;;;5030720;28;19968;-74
2023/01/11 12:29:34;;;;;;;;;;;9.30;99.90;;;;;;5029108;28;20298;-74
2023/01/11 12:32:09;;;;;;;;;;;9.30;99.90;;;;;;5012408;28;19932;-74
2023/01/11 12:34:46;;;;;;;;;;;9.40;99.90;;;;;;5028994;28;19933;-74
2023/01/11 12:37:34;;;;;;;;;;;9.40;99.90;;;;;;5012330;28;20067;-73
2023/01/11 12:40:02;;;;;;;;;;;9.50;99.90;;;;;;5012503;28;20004;-74
2023/01/11 12:42:49;;;;;;;;;;;9.60;99.90;;;;;;5033837;28;20032;-74
2023/01/11 12:45:37;;;;;;;;;;;9.70;99.90;;;;;;5012297;28;20019;-73
2023/01/11 12:48:13;;;;;;;;;;;9.80;99.90;;;;;;5028764;28;20326;-74
2023/01/11 12:50:53;;;;;;;;;;;9.80;99.90;;;;;;5033594;28;20000;-74
2023/01/11 12:53:28;;;;;;;;;;;9.70;99.90;;;;;;5032946;28;19972;-74
2023/01/11 12:56:11;;;;;;;;;;;9.60;99.90;;;;;;4996622;28;19929;-74
2023/01/11 12:58:48;;;;;;;;;;;9.40;99.90;;;;;;5012399;28;19979;-74
2023/01/11 13:01:32;;;;;;;;;;;9.30;99.90;;;;;;5034876;28;19933;-74
2023/01/11 13:04:10;;;;;;;;;;;9.30;99.90;;;;;;5019438;28;20371;-73
2023/01/11 13:06:36;;;;;;;;;;;9.20;99.90;;;;;;5011593;28;20051;-73
2023/01/11 13:09:04;;;;;;;;;;;9.10;99.90;;;;;;5011990;28;20011;-73
2023/01/11 13:11:47;;;;;;;;;;;9.20;99.90;;;;;;5028214;28;20024;-74
2023/01/11 13:14:25;;;;;;;;;;;9.10;99.90;;;;;;5011971;28;19944;-74
2023/01/11 13:17:06;;;;;;;;;;;9.20;99.90;;;;;;5012481;28;20405;-74
2023/01/11 13:19:33;;;;;;;;;;;9.20;99.90;;;;;;5023429;28;19935;-73
2023/01/11 13:22:03;;;;;;;;;;;9.20;99.90;;;;;;5026679;28;19974;-73
2023/01/11 13:24:30;;;;;;;;;;;9.10;99.90;;;;;;5013254;28;19936;-73
2023/01/11 13:27:00;;;;;;;;;;;9.20;99.90;;;;;;5027039;28;20257;-74
2023/01/11 13:29:42;;;;;;;;;;;9.30;99.90;;;;;;5006899;28;21007;-73
2023/01/11 13:32:22;;;;;;;;;;;9.40;99.90;;;;;;5025348;28;19929;-74
2023/01/11 13:34:54;;;;;;;;;;;9.30;99.90;;;;;;5031890;28;20412;-74
2023/01/11 13:37:20;;;;;;;;;;;9.30;99.90;;;;;;5026688;28;19990;-74
2023/01/11 13:39:54;;;;;;;;;;;9.20;99.90;;;;;;5028677;28;19936;-74
2023/01/11 13:42:21;;;;;;;;;;;9.10;99.90;;;;;;5022060;28;20398;-73
2023/01/11 13:44:55;;;;;;;;;;;9.00;99.90;;;;;;5031870;28;20343;-73
2023/01/11 13:47:38;;;;;;;;;;;8.90;99.90;;;;;;5034145;28;19936;-73
2023/01/11 13:50:17;;;;;;;;;;;8.90;99.90;;;;;;5027246;28;19921;-73
2023/01/11 13:52:48;;;;;;;;;;;8.80;99.90;;;;;;5021389;28;19979;-74
2023/01/11 13:55:20;;;;;;;;;;;8.80;99.90;;;;;;5031658;28;21224;-73
2023/01/11 13:57:49;;;;;;;;;;;8.80;99.90;;;;;;5041390;28;19943;-73
2023/01/11 14:00:21;;;;;;;;;;;8.80;99.90;;;;;;5014567;28;20380;-74
2023/01/11 14:03:19;;;;;;;;;;;8.80;99.90;;;;;;5035724;28;20379;-73
2023/01/11 14:05:50;;;;;;;;;;;8.80;99.90;;;;;;5009150;28;19978;-73
2023/01/11 14:08:21;;;;;;;;;;;8.80;99.90;;;;;;5033922;28;19944;-74
2023/01/11 14:10:59;;;;;;;;;;;8.80;99.90;;;;;;5030033;28;19972;-73
2023/01/11 14:16:43;;;;;;;;;;;8.80;99.90;;;;;;5029868;28;19932;-72
2023/01/11 14:19:18;;;;;;;;;;;8.70;99.90;;;;;;5021597;28;19947;-74
2023/01/11 14:21:44;;;;;;;;;;;8.80;99.90;;;;;;5051921;28;20341;-73
2023/01/11 14:24:10;;;;;;;;;;;8.80;99.90;;;;;;5063853;28;19936;-74
2023/01/11 14:26:38;;;;;;;;;;;8.80;99.90;;;;;;5044047;28;19928;-73
2023/01/11 14:29:24;;;;;;;;;;;8.80;99.90;;;;;;5053482;28;19925;-74
2023/01/11 14:32:00;;;;;;;;;;;8.80;99.90;;;;;;5034225;28;19925;-74
2023/01/11 14:34:51;;;;;;;;;;;8.70;99.90;;;;;;5022010;28;19959;-74
2023/01/11 14:37:23;;;;;;;;;;;8.70;99.90;;;;;;5035359;28;20413;-73
2023/01/11 14:40:03;;;;;;;;;;;8.60;99.90;;;;;;5021364;28;19932;-74
2023/01/11 14:42:37;;;;;;;;;;;8.60;99.90;;;;;;5033775;28;20008;-73
2023/01/11 14:45:21;;;;;;;;;;;8.50;99.90;;;;;;5032526;28;19933;-74
2023/01/11 14:47:56;;;;;;;;;;;8.50;99.90;;;;;;5037350;28;19931;-73
2023/01/11 14:50:24;;;;;;;;;;;8.40;99.90;;;;;;5035231;28;20241;-73
2023/01/11 14:52:52;;;;;;;;;;;8.40;99.90;;;;;;5032576;28;20518;-74
2023/01/11 14:55:21;;;;;;;;;;;8.40;99.90;;;;;;5004927;28;20436;-74
2023/01/11 14:57:55;;;;;;;;;;;8.30;99.90;;;;;;5030536;28;20016;-74
2023/01/11 15:00:21;;;;;;;;;;;8.30;99.90;;;;;;5034912;28;20378;-74
2023/01/11 15:02:51;;;;;;;;;;;8.20;99.90;;;;;;5043539;28;19986;-73
2023/01/11 15:05:32;;;;;;;;;;;8.20;99.90;;;;;;5038011;28;19936;-74
2023/01/11 15:08:13;;;;;;;;;;;8.10;99.90;;;;;;5029016;28;19928;-73
2023/01/11 15:10:48;;;;;;;;;;;8.10;99.90;;;;;;5013839;28;19924;-73
2023/01/11 15:13:17;;;;;;;;;;;8.10;99.90;;;;;;5009071;28;19929;-73
2023/01/11 15:18:28;;;;;;;;;;;8.00;99.90;;;;;;5017763;28;20678;-73
2023/01/11 15:21:04;;;;;;;;;;;8.00;99.90;;;;;;5036720;28;19963;-73